sensor_id;sensor_type;location;lat;lon;timestamp;P1;durP1;ratioP1;P2;durP2;ratioP2
4112;SDS011;2070;51.042;7.056;2023-04-24T00:01:25;1.63;;;0.50;;
4112;SDS011;2070;51.042;7.056;2023-04-24T00:03:50;1.10;;;0.90;;
4112;SDS011;2070;51.042;7.056;2023-04-24T00:06:16;1.13;;;0.67;;
4112;SDS011;2070;51.042;7.056;2023-04-24T00:08:41;0.90;;;0.50;;
4112;SDS011;2070;51.042;7.056;2023-04-24T00:11:07;0.80;;;0.50;;
4112;SDS011;2070;51.042;7.056;2023-04-24T00:13:34;0.80;;;0.50;;
4112;SDS011;2070;51.042;7.056;2023-04-24T00:15:59;0.93;;;0.80;;
4112;SDS011;2070;51.042;7.056;2023-04-24T00:18:24;1.07;;;0.80;;
4112;SDS011;2070;51.042;7.056;2023-04-24T00:20:49;1.20;;;0.70;;
4112;SDS011;2070;51.042;7.056;2023-04-24T00:23:15;1.10;;;0.60;;
4112;SDS011;2070;51.042;7.056;2023-04-24T00:25:40;1.20;;;0.90;;
4112;SDS011;2070;51.042;7.056;2023-04-24T00:28:05;1.10;;;0.90;;
4112;SDS011;2070;51.042;7.056;2023-04-24T00:30:30;0.83;;;0.63;;
4112;SDS011;2070;51.042;7.056;2023-04-24T00:32:55;0.97;;;0.70;;
4112;SDS011;2070;51.042;7.056;2023-04-24T00:35:21;7.83;;;0.80;;
4112;SDS011;2070;51.042;7.056;2023-04-24T00:37:46;1.40;;;1.10;;
4112;SDS011;2070;51.042;7.056;2023-04-24T00:40:11;0.80;;;0.70;;
4112;SDS011;2070;51.042;7.056;2023-04-24T00:42:37;3.97;;;0.90;;
4112;SDS011;2070;51.042;7.056;2023-04-24T00:45:02;2.20;;;0.90;;
4112;SDS011;2070;51.042;7.056;2023-04-24T00:47:28;1.10;;;0.90;;
4112;SDS011;2070;51.042;7.056;2023-04-24T00:49:53;0.87;;;0.60;;
4112;SDS011;2070;51.042;7.056;2023-04-24T00:52:18;3.43;;;0.80;;
4112;SDS011;2070;51.042;7.056;2023-04-24T00:54:44;1.20;;;0.80;;
4112;SDS011;2070;51.042;7.056;2023-04-24T00:57:10;2.57;;;0.97;;
4112;SDS011;2070;51.042;7.056;2023-04-24T00:59:35;1.23;;;0.87;;
4112;SDS011;2070;51.042;7.056;2023-04-24T01:02:01;7.70;;;0.80;;
4112;SDS011;2070;51.042;7.056;2023-04-24T01:04:26;2.47;;;1.00;;
4112;SDS011;2070;51.042;7.056;2023-04-24T01:06:52;2.83;;;0.63;;
4112;SDS011;2070;51.042;7.056;2023-04-24T01:09:17;6.77;;;0.90;;
4112;SDS011;2070;51.042;7.056;2023-04-24T01:11:43;1.30;;;0.80;;
4112;SDS011;2070;51.042;7.056;2023-04-24T01:14:08;2.00;;;1.00;;
4112;SDS011;2070;51.042;7.056;2023-04-24T01:16:33;5.40;;;1.50;;
4112;SDS011;2070;51.042;7.056;2023-04-24T01:18:59;0.93;;;0.73;;
4112;SDS011;2070;51.042;7.056;2023-04-24T01:21:25;1.57;;;1.10;;
4112;SDS011;2070;51.042;7.056;2023-04-24T01:23:52;1.23;;;1.10;;
4112;SDS011;2070;51.042;7.056;2023-04-24T01:26:17;1.30;;;0.83;;
4112;SDS011;2070;51.042;7.056;2023-04-24T01:28:44;1.10;;;0.73;;
4112;SDS011;2070;51.042;7.056;2023-04-24T01:31:10;1.10;;;0.90;;
4112;SDS011;2070;51.042;7.056;2023-04-24T01:33:35;1.10;;;0.90;;
4112;SDS011;2070;51.042;7.056;2023-04-24T01:36:00;3.07;;;1.30;;
4112;SDS011;2070;51.042;7.056;2023-04-24T01:38:26;1.10;;;0.70;;
4112;SDS011;2070;51.042;7.056;2023-04-24T01:40:51;5.57;;;1.17;;
4112;SDS011;2070;51.042;7.056;2023-04-24T01:43:17;1.37;;;1.10;;
4112;SDS011;2070;51.042;7.056;2023-04-24T01:45:42;1.30;;;1.20;;
4112;SDS011;2070;51.042;7.056;2023-04-24T01:48:08;1.23;;;1.00;;
4112;SDS011;2070;51.042;7.056;2023-04-24T01:50:33;1.10;;;0.93;;
4112;SDS011;2070;51.042;7.056;2023-04-24T01:52:58;1.70;;;1.60;;
4112;SDS011;2070;51.042;7.056;2023-04-24T01:55:23;3.43;;;1.87;;
4112;SDS011;2070;51.042;7.056;2023-04-24T01:57:49;3.97;;;1.77;;
4112;SDS011;2070;51.042;7.056;2023-04-24T02:00:14;2.00;;;1.60;;
4112;SDS011;2070;51.042;7.056;2023-04-24T02:02:40;1.00;;;0.80;;
4112;SDS011;2070;51.042;7.056;2023-04-24T02:05:06;2.90;;;2.70;;
4112;SDS011;2070;51.042;7.056;2023-04-24T02:07:31;2.27;;;1.97;;
4112;SDS011;2070;51.042;7.056;2023-04-24T02:09:57;4.80;;;2.17;;
4112;SDS011;2070;51.042;7.056;2023-04-24T02:12:22;2.47;;;2.23;;
4112;SDS011;2070;51.042;7.056;2023-04-24T02:14:48;2.40;;;2.00;;
4112;SDS011;2070;51.042;7.056;2023-04-24T02:17:13;6.33;;;3.07;;
4112;SDS011;2070;51.042;7.056;2023-04-24T02:19:40;5.20;;;3.10;;
4112;SDS011;2070;51.042;7.056;2023-04-24T02:22:05;4.33;;;2.90;;
4112;SDS011;2070;51.042;7.056;2023-04-24T02:24:30;7.00;;;3.57;;
4112;SDS011;2070;51.042;7.056;2023-04-24T02:26:56;5.27;;;3.67;;
4112;SDS011;2070;51.042;7.056;2023-04-24T02:29:21;5.77;;;3.83;;
4112;SDS011;2070;51.042;7.056;2023-04-24T02:31:46;3.87;;;3.10;;
4112;SDS011;2070;51.042;7.056;2023-04-24T02:34:11;4.17;;;3.40;;
4112;SDS011;2070;51.042;7.056;2023-04-24T02:36:36;28.37;;;3.10;;
4112;SDS011;2070;51.042;7.056;2023-04-24T02:39:02;7.47;;;3.80;;
4112;SDS011;2070;51.042;7.056;2023-04-24T02:41:28;6.10;;;3.97;;
4112;SDS011;2070;51.042;7.056;2023-04-24T02:43:56;5.67;;;3.90;;
4112;SDS011;2070;51.042;7.056;2023-04-24T02:46:22;6.20;;;4.20;;
4112;SDS011;2070;51.042;7.056;2023-04-24T02:48:47;8.50;;;4.10;;
4112;SDS011;2070;51.042;7.056;2023-04-24T02:51:12;6.23;;;3.60;;
4112;SDS011;2070;51.042;7.056;2023-04-24T02:53:37;13.30;;;3.80;;
4112;SDS011;2070;51.042;7.056;2023-04-24T02:56:02;3.27;;;2.80;;
4112;SDS011;2070;51.042;7.056;2023-04-24T02:58:28;4.60;;;4.20;;
4112;SDS011;2070;51.042;7.056;2023-04-24T03:00:53;4.40;;;3.43;;
4112;SDS011;2070;51.042;7.056;2023-04-24T03:03:20;7.27;;;3.57;;
4112;SDS011;2070;51.042;7.056;2023-04-24T03:05:45;5.47;;;3.13;;
4112;SDS011;2070;51.042;7.056;2023-04-24T03:08:10;6.47;;;4.07;;
4112;SDS011;2070;51.042;7.056;2023-04-24T03:10:35;8.97;;;5.77;;
4112;SDS011;2070;51.042;7.056;2023-04-24T03:13:01;4.60;;;3.90;;
4112;SDS011;2070;51.042;7.056;2023-04-24T03:15:26;9.70;;;4.87;;
4112;SDS011;2070;51.042;7.056;2023-04-24T03:17:51;7.83;;;5.10;;
4112;SDS011;2070;51.042;7.056;2023-04-24T03:20:17;8.30;;;4.90;;
4112;SDS011;2070;51.042;7.056;2023-04-24T03:22:42;4.20;;;3.87;;
4112;SDS011;2070;51.042;7.056;2023-04-24T03:25:07;5.73;;;4.00;;
4112;SDS011;2070;51.042;7.056;2023-04-24T03:27:34;4.77;;;3.50;;
4112;SDS011;2070;51.042;7.056;2023-04-24T03:29:59;3.87;;;3.50;;
4112;SDS011;2070;51.042;7.056;2023-04-24T03:32:25;4.37;;;4.07;;
4112;SDS011;2070;51.042;7.056;2023-04-24T03:34:50;10.60;;;5.03;;
4112;SDS011;2070;51.042;7.056;2023-04-24T03:37:16;8.80;;;4.50;;
4112;SDS011;2070;51.042;7.056;2023-04-24T03:39:41;8.97;;;3.57;;
4112;SDS011;2070;51.042;7.056;2023-04-24T03:42:07;13.23;;;4.23;;
4112;SDS011;2070;51.042;7.056;2023-04-24T03:44:33;8.87;;;6.03;;
4112;SDS011;2070;51.042;7.056;2023-04-24T03:46:58;6.23;;;4.60;;
4112;SDS011;2070;51.042;7.056;2023-04-24T03:49:23;5.63;;;5.07;;
4112;SDS011;2070;51.042;7.056;2023-04-24T03:51:48;6.13;;;5.40;;
4112;SDS011;2070;51.042;7.056;2023-04-24T03:54:14;5.03;;;4.60;;
4112;SDS011;2070;51.042;7.056;2023-04-24T03:56:39;5.33;;;4.90;;
4112;SDS011;2070;51.042;7.056;2023-04-24T03:59:04;7.33;;;4.83;;
4112;SDS011;2070;51.042;7.056;2023-04-24T04:01:29;11.57;;;5.03;;
4112;SDS011;2070;51.042;7.056;2023-04-24T04:03:55;8.57;;;5.13;;
4112;SDS011;2070;51.042;7.056;2023-04-24T04:06:20;10.63;;;5.77;;
4112;SDS011;2070;51.042;7.056;2023-04-24T04:08:46;9.30;;;4.43;;
4112;SDS011;2070;51.042;7.056;2023-04-24T04:11:11;5.17;;;4.00;;
4112;SDS011;2070;51.042;7.056;2023-04-24T04:13:36;7.03;;;4.30;;
4112;SDS011;2070;51.042;7.056;2023-04-24T04:16:02;7.00;;;4.43;;
4112;SDS011;2070;51.042;7.056;2023-04-24T04:18:27;8.20;;;5.50;;
4112;SDS011;2070;51.042;7.056;2023-04-24T04:20:52;9.80;;;4.97;;
4112;SDS011;2070;51.042;7.056;2023-04-24T04:23:17;8.73;;;5.23;;
4112;SDS011;2070;51.042;7.056;2023-04-24T04:25:42;6.00;;;4.33;;
4112;SDS011;2070;51.042;7.056;2023-04-24T04:28:08;5.30;;;3.93;;
4112;SDS011;2070;51.042;7.056;2023-04-24T04:30:33;6.80;;;4.63;;
4112;SDS011;2070;51.042;7.056;2023-04-24T04:32:58;5.17;;;3.83;;
4112;SDS011;2070;51.042;7.056;2023-04-24T04:35:24;4.47;;;3.73;;
4112;SDS011;2070;51.042;7.056;2023-04-24T04:37:49;6.00;;;4.10;;
4112;SDS011;2070;51.042;7.056;2023-04-24T04:40:16;5.67;;;5.07;;
4112;SDS011;2070;51.042;7.056;2023-04-24T04:42:41;7.57;;;3.97;;
4112;SDS011;2070;51.042;7.056;2023-04-24T04:45:07;7.03;;;4.50;;
4112;SDS011;2070;51.042;7.056;2023-04-24T04:47:36;13.07;;;5.10;;
4112;SDS011;2070;51.042;7.056;2023-04-24T04:50:01;9.83;;;4.50;;
4112;SDS011;2070;51.042;7.056;2023-04-24T04:52:28;4.93;;;3.93;;
4112;SDS011;2070;51.042;7.056;2023-04-24T04:54:54;3.67;;;3.30;;
4112;SDS011;2070;51.042;7.056;2023-04-24T04:57:19;4.70;;;4.30;;
4112;SDS011;2070;51.042;7.056;2023-04-24T04:59:45;5.33;;;3.37;;
4112;SDS011;2070;51.042;7.056;2023-04-24T05:02:13;3.90;;;3.37;;
4112;SDS011;2070;51.042;7.056;2023-04-24T05:04:38;4.50;;;4.10;;
4112;SDS011;2070;51.042;7.056;2023-04-24T05:07:03;5.53;;;3.97;;
4112;SDS011;2070;51.042;7.056;2023-04-24T05:09:28;7.23;;;3.87;;
4112;SDS011;2070;51.042;7.056;2023-04-24T05:11:54;5.37;;;3.47;;
4112;SDS011;2070;51.042;7.056;2023-04-24T05:14:20;5.17;;;3.37;;
4112;SDS011;2070;51.042;7.056;2023-04-24T05:16:45;7.03;;;3.33;;
4112;SDS011;2070;51.042;7.056;2023-04-24T05:19:10;6.67;;;3.37;;
4112;SDS011;2070;51.042;7.056;2023-04-24T05:21:40;3.80;;;3.37;;
4112;SDS011;2070;51.042;7.056;2023-04-24T05:24:05;3.73;;;2.90;;
4112;SDS011;2070;51.042;7.056;2023-04-24T05:26:30;14.97;;;3.43;;
4112;SDS011;2070;51.042;7.056;2023-04-24T05:28:56;6.57;;;5.80;;
4112;SDS011;2070;51.042;7.056;2023-04-24T05:31:21;4.80;;;3.97;;
4112;SDS011;2070;51.042;7.056;2023-04-24T05:33:46;5.33;;;3.57;;
4112;SDS011;2070;51.042;7.056;2023-04-24T05:36:11;4.87;;;3.80;;
4112;SDS011;2070;51.042;7.056;2023-04-24T05:38:36;4.80;;;3.80;;
4112;SDS011;2070;51.042;7.056;2023-04-24T05:41:02;8.63;;;4.07;;
4112;SDS011;2070;51.042;7.056;2023-04-24T05:43:27;10.73;;;4.10;;
4112;SDS011;2070;51.042;7.056;2023-04-24T05:45:52;13.23;;;4.43;;
4112;SDS011;2070;51.042;7.056;2023-04-24T05:48:18;8.40;;;4.70;;
4112;SDS011;2070;51.042;7.056;2023-04-24T05:50:43;5.13;;;4.00;;
4112;SDS011;2070;51.042;7.056;2023-04-24T05:53:09;8.33;;;5.47;;
4112;SDS011;2070;51.042;7.056;2023-04-24T05:55:35;5.57;;;4.93;;
4112;SDS011;2070;51.042;7.056;2023-04-24T05:58:01;6.10;;;5.10;;
4112;SDS011;2070;51.042;7.056;2023-04-24T06:00:26;7.70;;;4.67;;
4112;SDS011;2070;51.042;7.056;2023-04-24T06:02:51;10.70;;;5.20;;
4112;SDS011;2070;51.042;7.056;2023-04-24T06:05:17;9.03;;;5.20;;
4112;SDS011;2070;51.042;7.056;2023-04-24T06:07:43;9.43;;;5.80;;
4112;SDS011;2070;51.042;7.056;2023-04-24T06:10:08;7.87;;;4.80;;
4112;SDS011;2070;51.042;7.056;2023-04-24T06:12:33;5.23;;;3.80;;
4112;SDS011;2070;51.042;7.056;2023-04-24T06:14:59;9.80;;;4.23;;
4112;SDS011;2070;51.042;7.056;2023-04-24T06:17:25;8.77;;;4.77;;
4112;SDS011;2070;51.042;7.056;2023-04-24T06:19:50;6.27;;;4.30;;
4112;SDS011;2070;51.042;7.056;2023-04-24T06:22:15;6.77;;;5.57;;
4112;SDS011;2070;51.042;7.056;2023-04-24T06:24:40;4.60;;;4.00;;
4112;SDS011;2070;51.042;7.056;2023-04-24T06:27:06;6.17;;;3.63;;
4112;SDS011;2070;51.042;7.056;2023-04-24T06:29:32;5.33;;;4.37;;
4112;SDS011;2070;51.042;7.056;2023-04-24T06:31:58;5.03;;;3.47;;
4112;SDS011;2070;51.042;7.056;2023-04-24T06:34:23;3.87;;;3.50;;
4112;SDS011;2070;51.042;7.056;2023-04-24T06:36:48;3.73;;;2.70;;
4112;SDS011;2070;51.042;7.056;2023-04-24T06:39:13;3.63;;;3.07;;
4112;SDS011;2070;51.042;7.056;2023-04-24T06:41:39;3.67;;;2.20;;
4112;SDS011;2070;51.042;7.056;2023-04-24T06:44:05;8.33;;;2.30;;
4112;SDS011;2070;51.042;7.056;2023-04-24T06:46:30;6.70;;;2.43;;
4112;SDS011;2070;51.042;7.056;2023-04-24T06:48:55;3.20;;;1.80;;
4112;SDS011;2070;51.042;7.056;2023-04-24T06:51:22;4.73;;;2.27;;
4112;SDS011;2070;51.042;7.056;2023-04-24T06:53:47;1.90;;;1.80;;
4112;SDS011;2070;51.042;7.056;2023-04-24T06:56:12;1.17;;;1.07;;
4112;SDS011;2070;51.042;7.056;2023-04-24T06:58:37;2.00;;;1.73;;
4112;SDS011;2070;51.042;7.056;2023-04-24T07:01:03;3.00;;;2.10;;
4112;SDS011;2070;51.042;7.056;2023-04-24T07:03:28;1.80;;;1.70;;
4112;SDS011;2070;51.042;7.056;2023-04-24T07:05:54;1.70;;;1.27;;
4112;SDS011;2070;51.042;7.056;2023-04-24T07:08:19;3.40;;;1.40;;
4112;SDS011;2070;51.042;7.056;2023-04-24T07:10:46;2.20;;;1.17;;
4112;SDS011;2070;51.042;7.056;2023-04-24T07:13:11;6.27;;;1.23;;
4112;SDS011;2070;51.042;7.056;2023-04-24T07:15:36;1.33;;;1.23;;
4112;SDS011;2070;51.042;7.056;2023-04-24T07:18:02;5.30;;;1.53;;
4112;SDS011;2070;51.042;7.056;2023-04-24T07:20:27;1.93;;;1.30;;
4112;SDS011;2070;51.042;7.056;2023-04-24T07:22:52;1.30;;;1.17;;
4112;SDS011;2070;51.042;7.056;2023-04-24T07:25:18;1.47;;;1.37;;
4112;SDS011;2070;51.042;7.056;2023-04-24T07:27:44;2.50;;;1.70;;
4112;SDS011;2070;51.042;7.056;2023-04-24T07:30:09;4.63;;;2.13;;
4112;SDS011;2070;51.042;7.056;2023-04-24T07:32:34;5.30;;;2.00;;
4112;SDS011;2070;51.042;7.056;2023-04-24T07:35:00;1.93;;;1.60;;
4112;SDS011;2070;51.042;7.056;2023-04-24T07:37:25;9.13;;;4.90;;
4112;SDS011;2070;51.042;7.056;2023-04-24T07:39:50;6.03;;;2.63;;
4112;SDS011;2070;51.042;7.056;2023-04-24T07:42:15;2.23;;;1.70;;
4112;SDS011;2070;51.042;7.056;2023-04-24T07:44:41;2.93;;;2.10;;
4112;SDS011;2070;51.042;7.056;2023-04-24T07:47:06;3.63;;;2.17;;
4112;SDS011;2070;51.042;7.056;2023-04-24T07:49:31;2.63;;;2.07;;
4112;SDS011;2070;51.042;7.056;2023-04-24T07:51:56;2.53;;;1.47;;
4112;SDS011;2070;51.042;7.056;2023-04-24T07:54:21;2.50;;;2.30;;
4112;SDS011;2070;51.042;7.056;2023-04-24T07:56:47;4.40;;;2.50;;
4112;SDS011;2070;51.042;7.056;2023-04-24T07:59:13;5.73;;;2.20;;
4112;SDS011;2070;51.042;7.056;2023-04-24T08:01:38;3.57;;;2.40;;
4112;SDS011;2070;51.042;7.056;2023-04-24T08:04:03;2.07;;;1.77;;
4112;SDS011;2070;51.042;7.056;2023-04-24T08:06:28;6.97;;;2.07;;
4112;SDS011;2070;51.042;7.056;2023-04-24T08:08:55;2.33;;;2.13;;
4112;SDS011;2070;51.042;7.056;2023-04-24T08:11:20;3.30;;;1.70;;
4112;SDS011;2070;51.042;7.056;2023-04-24T08:13:46;7.20;;;4.77;;
4112;SDS011;2070;51.042;7.056;2023-04-24T08:16:11;3.33;;;2.33;;
4112;SDS011;2070;51.042;7.056;2023-04-24T08:18:36;18.50;;;2.60;;
4112;SDS011;2070;51.042;7.056;2023-04-24T08:21:02;2.40;;;2.20;;
4112;SDS011;2070;51.042;7.056;2023-04-24T08:23:31;7.93;;;2.10;;
4112;SDS011;2070;51.042;7.056;2023-04-24T08:25:56;2.57;;;2.37;;
4112;SDS011;2070;51.042;7.056;2023-04-24T08:28:25;4.03;;;1.97;;
4112;SDS011;2070;51.042;7.056;2023-04-24T08:30:51;4.63;;;2.13;;
4112;SDS011;2070;51.042;7.056;2023-04-24T08:33:19;4.20;;;2.13;;
4112;SDS011;2070;51.042;7.056;2023-04-24T08:35:44;5.87;;;2.60;;
4112;SDS011;2070;51.042;7.056;2023-04-24T08:38:10;2.73;;;2.53;;
4112;SDS011;2070;51.042;7.056;2023-04-24T08:40:35;5.43;;;2.30;;
4112;SDS011;2070;51.042;7.056;2023-04-24T08:43:01;6.07;;;1.70;;
4112;SDS011;2070;51.042;7.056;2023-04-24T08:45:28;3.33;;;1.20;;
4112;SDS011;2070;51.042;7.056;2023-04-24T08:47:54;1.67;;;1.57;;
4112;SDS011;2070;51.042;7.056;2023-04-24T08:50:19;2.27;;;1.63;;
4112;SDS011;2070;51.042;7.056;2023-04-24T08:52:45;1.90;;;1.53;;
4112;SDS011;2070;51.042;7.056;2023-04-24T08:55:10;6.30;;;1.70;;
4112;SDS011;2070;51.042;7.056;2023-04-24T08:57:36;3.80;;;2.90;;
4112;SDS011;2070;51.042;7.056;2023-04-24T09:00:03;6.40;;;3.13;;
4112;SDS011;2070;51.042;7.056;2023-04-24T09:02:29;2.10;;;1.90;;
4112;SDS011;2070;51.042;7.056;2023-04-24T09:04:55;2.80;;;2.17;;
4112;SDS011;2070;51.042;7.056;2023-04-24T09:07:21;3.70;;;3.20;;
4112;SDS011;2070;51.042;7.056;2023-04-24T09:09:47;4.50;;;2.87;;
4112;SDS011;2070;51.042;7.056;2023-04-24T09:12:13;4.40;;;2.57;;
4112;SDS011;2070;51.042;7.056;2023-04-24T09:14:38;3.77;;;3.37;;
4112;SDS011;2070;51.042;7.056;2023-04-24T09:17:07;7.40;;;3.03;;
4112;SDS011;2070;51.042;7.056;2023-04-24T09:19:33;10.97;;;3.97;;
4112;SDS011;2070;51.042;7.056;2023-04-24T09:21:58;4.27;;;3.40;;
4112;SDS011;2070;51.042;7.056;2023-04-24T09:24:23;5.97;;;3.97;;
4112;SDS011;2070;51.042;7.056;2023-04-24T09:26:49;4.40;;;2.90;;
4112;SDS011;2070;51.042;7.056;2023-04-24T09:29:22;5.83;;;3.73;;
4112;SDS011;2070;51.042;7.056;2023-04-24T09:31:47;6.20;;;3.00;;
4112;SDS011;2070;51.042;7.056;2023-04-24T09:34:12;6.27;;;4.37;;
4112;SDS011;2070;51.042;7.056;2023-04-24T09:36:38;6.70;;;3.80;;
4112;SDS011;2070;51.042;7.056;2023-04-24T09:39:05;8.13;;;4.07;;
4112;SDS011;2070;51.042;7.056;2023-04-24T09:41:31;4.17;;;3.63;;
4112;SDS011;2070;51.042;7.056;2023-04-24T09:43:56;4.60;;;3.70;;
4112;SDS011;2070;51.042;7.056;2023-04-24T09:46:29;9.53;;;4.50;;
4112;SDS011;2070;51.042;7.056;2023-04-24T09:48:54;11.47;;;4.77;;
4112;SDS011;2070;51.042;7.056;2023-04-24T09:51:19;4.63;;;3.60;;
4112;SDS011;2070;51.042;7.056;2023-04-24T09:53:57;8.90;;;4.73;;
4112;SDS011;2070;51.042;7.056;2023-04-24T09:56:22;5.80;;;4.23;;
4112;SDS011;2070;51.042;7.056;2023-04-24T09:58:50;11.00;;;5.00;;
4112;SDS011;2070;51.042;7.056;2023-04-24T10:01:15;6.37;;;4.83;;
4112;SDS011;2070;51.042;7.056;2023-04-24T10:03:41;4.70;;;4.00;;
4112;SDS011;2070;51.042;7.056;2023-04-24T10:06:06;9.47;;;4.10;;
4112;SDS011;2070;51.042;7.056;2023-04-24T10:08:34;9.90;;;5.03;;
4112;SDS011;2070;51.042;7.056;2023-04-24T10:10:59;11.63;;;5.00;;
4112;SDS011;2070;51.042;7.056;2023-04-24T10:13:25;6.83;;;5.27;;
4112;SDS011;2070;51.042;7.056;2023-04-24T10:15:50;7.53;;;5.10;;
4112;SDS011;2070;51.042;7.056;2023-04-24T10:18:16;7.73;;;4.60;;
4112;SDS011;2070;51.042;7.056;2023-04-24T10:20:41;12.50;;;5.90;;
4112;SDS011;2070;51.042;7.056;2023-04-24T10:23:06;13.43;;;5.63;;
4112;SDS011;2070;51.042;7.056;2023-04-24T10:25:32;13.20;;;5.77;;
4112;SDS011;2070;51.042;7.056;2023-04-24T10:27:58;12.23;;;6.50;;
4112;SDS011;2070;51.042;7.056;2023-04-24T10:30:28;17.97;;;5.50;;
4112;SDS011;2070;51.042;7.056;2023-04-24T10:32:53;17.43;;;6.13;;
4112;SDS011;2070;51.042;7.056;2023-04-24T10:35:19;9.50;;;4.53;;
4112;SDS011;2070;51.042;7.056;2023-04-24T10:37:51;6.13;;;4.73;;
4112;SDS011;2070;51.042;7.056;2023-04-24T10:40:19;9.40;;;4.30;;
4112;SDS011;2070;51.042;7.056;2023-04-24T10:42:51;8.93;;;4.60;;
4112;SDS011;2070;51.042;7.056;2023-04-24T10:45:18;6.80;;;4.57;;
4112;SDS011;2070;51.042;7.056;2023-04-24T10:47:50;8.67;;;4.50;;
4112;SDS011;2070;51.042;7.056;2023-04-24T10:50:19;12.37;;;4.37;;
4112;SDS011;2070;51.042;7.056;2023-04-24T10:52:45;9.30;;;4.70;;
4112;SDS011;2070;51.042;7.056;2023-04-24T10:55:12;11.97;;;4.77;;
4112;SDS011;2070;51.042;7.056;2023-04-24T10:57:37;14.00;;;4.30;;
4112;SDS011;2070;51.042;7.056;2023-04-24T11:00:35;5.17;;;3.40;;
4112;SDS011;2070;51.042;7.056;2023-04-24T11:02:53;5.20;;;3.93;;
4112;SDS011;2070;51.042;7.056;2023-04-24T11:05:20;14.23;;;4.77;;
4112;SDS011;2070;51.042;7.056;2023-04-24T11:10:29;5.87;;;4.30;;
4112;SDS011;2070;51.042;7.056;2023-04-24T11:12:54;7.27;;;2.70;;
4112;SDS011;2070;51.042;7.056;2023-04-24T11:15:20;13.67;;;3.17;;
4112;SDS011;2070;51.042;7.056;2023-04-24T11:17:45;5.00;;;2.80;;
4112;SDS011;2070;51.042;7.056;2023-04-24T11:20:11;6.80;;;2.37;;
4112;SDS011;2070;51.042;7.056;2023-04-24T11:22:37;4.10;;;3.00;;
4112;SDS011;2070;51.042;7.056;2023-04-24T11:25:03;13.03;;;3.43;;
4112;SDS011;2070;51.042;7.056;2023-04-24T11:27:31;6.70;;;3.43;;
4112;SDS011;2070;51.042;7.056;2023-04-24T11:32:30;7.13;;;3.43;;
4112;SDS011;2070;51.042;7.056;2023-04-24T11:34:59;5.53;;;3.30;;
4112;SDS011;2070;51.042;7.056;2023-04-24T11:37:29;5.87;;;3.03;;
4112;SDS011;2070;51.042;7.056;2023-04-24T11:39:58;11.40;;;4.50;;
4112;SDS011;2070;51.042;7.056;2023-04-24T11:42:23;4.47;;;2.53;;
4112;SDS011;2070;51.042;7.056;2023-04-24T11:44:49;13.30;;;3.93;;
4112;SDS011;2070;51.042;7.056;2023-04-24T11:47:14;8.90;;;3.27;;
4112;SDS011;2070;51.042;7.056;2023-04-24T11:49:40;5.67;;;2.57;;
4112;SDS011;2070;51.042;7.056;2023-04-24T11:52:05;14.73;;;3.37;;
4112;SDS011;2070;51.042;7.056;2023-04-24T11:54:31;19.17;;;4.30;;
4112;SDS011;2070;51.042;7.056;2023-04-24T11:56:56;7.83;;;3.00;;
4112;SDS011;2070;51.042;7.056;2023-04-24T11:59:22;8.17;;;3.97;;
4112;SDS011;2070;51.042;7.056;2023-04-24T12:01:47;7.20;;;3.13;;
4112;SDS011;2070;51.042;7.056;2023-04-24T12:04:13;4.60;;;3.43;;
4112;SDS011;2070;51.042;7.056;2023-04-24T12:06:39;8.33;;;3.07;;
4112;SDS011;2070;51.042;7.056;2023-04-24T12:09:04;6.87;;;3.73;;
4112;SDS011;2070;51.042;7.056;2023-04-24T12:11:29;3.67;;;2.90;;
4112;SDS011;2070;51.042;7.056;2023-04-24T12:13:55;7.30;;;3.53;;
4112;SDS011;2070;51.042;7.056;2023-04-24T12:16:20;9.33;;;3.83;;
4112;SDS011;2070;51.042;7.056;2023-04-24T12:18:45;11.03;;;3.43;;
4112;SDS011;2070;51.042;7.056;2023-04-24T12:21:20;7.37;;;2.47;;
4112;SDS011;2070;51.042;7.056;2023-04-24T12:23:46;7.43;;;3.53;;
4112;SDS011;2070;51.042;7.056;2023-04-24T12:26:12;6.90;;;2.80;;
4112;SDS011;2070;51.042;7.056;2023-04-24T12:28:38;5.67;;;2.50;;
4112;SDS011;2070;51.042;7.056;2023-04-24T12:31:03;16.37;;;3.07;;
4112;SDS011;2070;51.042;7.056;2023-04-24T12:33:32;7.93;;;2.80;;
4112;SDS011;2070;51.042;7.056;2023-04-24T12:35:57;7.33;;;2.97;;
4112;SDS011;2070;51.042;7.056;2023-04-24T12:38:23;17.47;;;3.30;;
4112;SDS011;2070;51.042;7.056;2023-04-24T12:41:00;10.17;;;2.67;;
4112;SDS011;2070;51.042;7.056;2023-04-24T12:43:25;5.67;;;2.50;;
4112;SDS011;2070;51.042;7.056;2023-04-24T12:45:51;2.73;;;2.20;;
4112;SDS011;2070;51.042;7.056;2023-04-24T12:48:16;37.77;;;3.23;;
4112;SDS011;2070;51.042;7.056;2023-04-24T12:50:41;5.57;;;1.97;;
4112;SDS011;2070;51.042;7.056;2023-04-24T12:53:07;5.90;;;2.80;;
4112;SDS011;2070;51.042;7.056;2023-04-24T12:55:33;3.77;;;2.50;;
4112;SDS011;2070;51.042;7.056;2023-04-24T12:57:58;7.57;;;2.60;;
4112;SDS011;2070;51.042;7.056;2023-04-24T13:00:24;3.60;;;1.87;;
4112;SDS011;2070;51.042;7.056;2023-04-24T13:02:49;5.10;;;2.50;;
4112;SDS011;2070;51.042;7.056;2023-04-24T13:05:14;5.47;;;2.87;;
4112;SDS011;2070;51.042;7.056;2023-04-24T13:07:40;2.80;;;2.30;;
4112;SDS011;2070;51.042;7.056;2023-04-24T13:10:05;15.80;;;2.23;;
4112;SDS011;2070;51.042;7.056;2023-04-24T13:12:31;11.17;;;2.60;;
4112;SDS011;2070;51.042;7.056;2023-04-24T13:14:57;6.50;;;1.90;;
4112;SDS011;2070;51.042;7.056;2023-04-24T13:17:22;4.13;;;1.83;;
4112;SDS011;2070;51.042;7.056;2023-04-24T13:19:49;4.80;;;3.10;;
4112;SDS011;2070;51.042;7.056;2023-04-24T13:22:15;17.07;;;4.77;;
4112;SDS011;2070;51.042;7.056;2023-04-24T13:24:40;4.87;;;2.23;;
4112;SDS011;2070;51.042;7.056;2023-04-24T13:27:06;6.77;;;2.60;;
4112;SDS011;2070;51.042;7.056;2023-04-24T13:29:31;14.37;;;3.07;;
4112;SDS011;2070;51.042;7.056;2023-04-24T13:31:57;17.03;;;2.50;;
4112;SDS011;2070;51.042;7.056;2023-04-24T13:34:22;3.23;;;2.00;;
4112;SDS011;2070;51.042;7.056;2023-04-24T13:36:49;19.63;;;2.37;;
4112;SDS011;2070;51.042;7.056;2023-04-24T13:39:15;3.63;;;2.77;;
4112;SDS011;2070;51.042;7.056;2023-04-24T13:41:41;9.03;;;2.30;;
4112;SDS011;2070;51.042;7.056;2023-04-24T13:44:07;2.10;;;1.90;;
4112;SDS011;2070;51.042;7.056;2023-04-24T13:46:33;5.03;;;2.50;;
4112;SDS011;2070;51.042;7.056;2023-04-24T13:48:58;5.37;;;2.63;;
4112;SDS011;2070;51.042;7.056;2023-04-24T13:51:23;5.27;;;2.30;;
4112;SDS011;2070;51.042;7.056;2023-04-24T13:53:50;14.00;;;2.83;;
4112;SDS011;2070;51.042;7.056;2023-04-24T13:56:16;5.53;;;2.90;;
4112;SDS011;2070;51.042;7.056;2023-04-24T13:58:41;7.00;;;2.63;;
4112;SDS011;2070;51.042;7.056;2023-04-24T14:01:06;9.97;;;2.53;;
4112;SDS011;2070;51.042;7.056;2023-04-24T14:03:32;5.87;;;1.93;;
4112;SDS011;2070;51.042;7.056;2023-04-24T14:05:58;13.83;;;2.37;;
4112;SDS011;2070;51.042;7.056;2023-04-24T14:08:23;12.27;;;2.27;;
4112;SDS011;2070;51.042;7.056;2023-04-24T14:10:49;6.53;;;1.90;;
4112;SDS011;2070;51.042;7.056;2023-04-24T14:13:15;6.93;;;2.33;;
4112;SDS011;2070;51.042;7.056;2023-04-24T14:15:41;8.63;;;2.40;;
4112;SDS011;2070;51.042;7.056;2023-04-24T14:18:06;2.67;;;1.83;;
4112;SDS011;2070;51.042;7.056;2023-04-24T14:20:31;3.10;;;2.20;;
4112;SDS011;2070;51.042;7.056;2023-04-24T14:22:57;11.00;;;2.90;;
4112;SDS011;2070;51.042;7.056;2023-04-24T14:25:25;5.60;;;2.73;;
4112;SDS011;2070;51.042;7.056;2023-04-24T14:27:50;6.03;;;2.53;;
4112;SDS011;2070;51.042;7.056;2023-04-24T14:30:15;3.93;;;2.17;;
4112;SDS011;2070;51.042;7.056;2023-04-24T14:32:41;5.87;;;2.70;;
4112;SDS011;2070;51.042;7.056;2023-04-24T14:35:06;5.97;;;2.90;;
4112;SDS011;2070;51.042;7.056;2023-04-24T14:37:31;10.10;;;2.87;;
4112;SDS011;2070;51.042;7.056;2023-04-24T14:39:57;3.83;;;2.80;;
4112;SDS011;2070;51.042;7.056;2023-04-24T14:42:22;12.13;;;3.47;;
4112;SDS011;2070;51.042;7.056;2023-04-24T14:44:47;9.53;;;3.77;;
4112;SDS011;2070;51.042;7.056;2023-04-24T14:47:12;1.97;;;1.77;;
4112;SDS011;2070;51.042;7.056;2023-04-24T14:49:38;3.50;;;2.07;;
4112;SDS011;2070;51.042;7.056;2023-04-24T14:52:03;3.27;;;2.43;;
4112;SDS011;2070;51.042;7.056;2023-04-24T14:54:28;4.43;;;1.63;;
4112;SDS011;2070;51.042;7.056;2023-04-24T14:56:54;2.33;;;1.50;;
4112;SDS011;2070;51.042;7.056;2023-04-24T14:59:19;6.70;;;1.77;;
4112;SDS011;2070;51.042;7.056;2023-04-24T15:01:45;3.43;;;1.50;;
4112;SDS011;2070;51.042;7.056;2023-04-24T15:04:10;5.30;;;2.90;;
4112;SDS011;2070;51.042;7.056;2023-04-24T15:06:35;2.90;;;2.10;;
4112;SDS011;2070;51.042;7.056;2023-04-24T15:09:01;6.20;;;2.10;;